createdAt,value
2023-07-25T00:03:00.852Z,21.87
2023-07-25T00:08:22.858Z,21.86
2023-07-25T00:13:47.853Z,21.85
2023-07-25T00:19:09.791Z,21.86
2023-07-25T00:24:31.656Z,21.86
2023-07-25T00:29:54.140Z,21.85
2023-07-25T00:35:16.075Z,21.83
2023-07-25T00:40:41.099Z,21.83
2023-07-25T00:46:03.195Z,21.83
2023-07-25T00:51:25.090Z,21.83
2023-07-25T00:56:47.022Z,21.82
2023-07-25T01:02:10.174Z,21.81
2023-07-25T01:07:33.046Z,21.80
2023-07-25T01:12:55.085Z,21.80
2023-07-25T01:18:17.461Z,21.79
2023-07-25T01:23:40.110Z,21.79
2023-07-25T01:29:01.977Z,21.77
2023-07-25T01:34:24.078Z,21.78
2023-07-25T01:39:45.967Z,21.76
2023-07-25T01:45:08.715Z,21.76
2023-07-25T01:50:32.455Z,21.75
2023-07-25T01:55:54.775Z,21.74
2023-07-25T02:01:16.749Z,21.74
2023-07-25T02:06:38.776Z,21.73
2023-07-25T02:12:02.265Z,21.74
2023-07-25T02:17:24.134Z,21.73
2023-07-25T02:22:45.997Z,21.71
2023-07-25T02:28:07.840Z,21.71
2023-07-25T02:33:29.799Z,21.71
2023-07-25T02:38:51.965Z,21.70
2023-07-25T02:44:13.842Z,21.70
2023-07-25T02:49:35.682Z,21.69
2023-07-25T02:54:57.554Z,21.68
2023-07-25T03:00:19.848Z,21.67
2023-07-25T03:05:41.821Z,21.66
2023-07-25T03:11:03.758Z,21.65
2023-07-25T03:16:25.766Z,21.65
2023-07-25T03:21:47.835Z,21.64
2023-07-25T03:27:09.789Z,21.63
2023-07-25T03:32:31.758Z,21.63
2023-07-25T03:37:53.680Z,21.63
2023-07-25T03:43:15.533Z,21.62
2023-07-25T03:48:37.667Z,21.61
2023-07-25T03:53:59.600Z,21.60
2023-07-25T03:59:22.092Z,21.60
2023-07-25T04:04:44.121Z,21.61
2023-07-25T04:10:06.679Z,21.58
2023-07-25T04:15:28.592Z,21.57
2023-07-25T04:20:50.512Z,21.57
2023-07-25T04:26:12.420Z,21.57
2023-07-25T04:31:34.712Z,21.56
2023-07-25T04:36:56.955Z,21.55
2023-07-25T04:42:18.857Z,21.55
2023-07-25T04:47:40.884Z,21.55
2023-07-25T04:53:02.769Z,21.54
2023-07-25T04:58:24.595Z,21.55
2023-07-25T05:03:46.482Z,21.52
2023-07-25T05:09:08.575Z,21.53
2023-07-25T05:14:30.438Z,21.52
2023-07-25T05:19:52.330Z,21.52
2023-07-25T05:25:14.172Z,21.53
2023-07-25T05:30:36.022Z,21.52
2023-07-25T05:36:05.076Z,21.55
2023-07-25T05:41:27.049Z,21.53
2023-07-25T05:46:48.940Z,21.54
2023-07-25T05:52:10.900Z,21.54
2023-07-25T05:57:32.787Z,21.55
2023-07-25T06:02:54.673Z,21.57
2023-07-25T06:08:16.527Z,21.60
2023-07-25T06:13:41.524Z,21.61
2023-07-25T06:19:03.584Z,21.61
2023-07-25T06:24:25.591Z,21.61
2023-07-25T06:29:48.088Z,21.62
2023-07-25T06:35:10.239Z,21.63
2023-07-25T06:40:32.272Z,21.66
2023-07-25T06:45:54.725Z,21.70
2023-07-25T06:51:16.640Z,21.75
2023-07-25T06:56:38.562Z,21.75
2023-07-25T07:02:00.450Z,21.73
2023-07-25T07:07:22.446Z,21.72
2023-07-25T07:12:49.351Z,21.70
2023-07-25T07:18:11.700Z,21.70
2023-07-25T07:23:34.539Z,21.71
2023-07-25T07:28:56.372Z,21.72
2023-07-25T07:34:19.257Z,21.77
2023-07-25T07:39:42.738Z,21.78
2023-07-25T07:45:04.961Z,21.82
2023-07-25T07:50:29.987Z,21.84
2023-07-25T07:55:51.868Z,21.85
2023-07-25T08:01:23.232Z,21.82
2023-07-25T08:06:45.247Z,21.80
2023-07-25T08:12:07.846Z,21.80
2023-07-25T08:17:29.878Z,21.79
2023-07-25T08:22:51.851Z,21.79
2023-07-25T08:28:13.892Z,21.77
2023-07-25T08:33:38.397Z,21.78
2023-07-25T08:39:00.289Z,21.78
2023-07-25T08:44:22.837Z,21.80
2023-07-25T08:49:47.984Z,21.82
2023-07-25T08:55:10.135Z,21.83
2023-07-25T09:00:32.437Z,21.83
2023-07-25T09:05:54.832Z,21.82
2023-07-25T09:11:20.924Z,21.82
2023-07-25T09:16:43.016Z,21.83
2023-07-25T09:22:05.303Z,21.85
2023-07-25T09:27:27.941Z,21.90
2023-07-25T09:32:51.826Z,21.94
2023-07-25T09:38:13.805Z,21.97
2023-07-25T09:43:35.750Z,22.02
2023-07-25T09:48:57.742Z,22.10
2023-07-25T09:54:19.656Z,22.11
2023-07-25T09:59:41.797Z,22.12
2023-07-25T10:05:03.943Z,22.14
2023-07-25T10:10:27.119Z,22.16
2023-07-25T10:15:50.829Z,22.17
2023-07-25T10:21:13.372Z,22.19
2023-07-25T10:26:35.317Z,22.18
2023-07-25T10:31:57.571Z,22.17
2023-07-25T10:37:29.762Z,22.16
2023-07-25T10:48:45.029Z,22.08
2023-07-25T10:54:10.505Z,22.02
2023-07-25T10:59:32.346Z,22.01
2023-07-25T11:05:14.153Z,22.00
2023-07-25T11:10:36.484Z,21.98
2023-07-25T11:15:58.632Z,21.98
2023-07-25T11:21:20.555Z,22.00
2023-07-25T11:26:44.711Z,22.02
2023-07-25T11:32:07.186Z,22.07
2023-07-25T11:37:29.134Z,22.09
2023-07-25T11:42:51.682Z,22.13
2023-07-25T11:48:16.495Z,22.12
2023-07-25T11:53:38.738Z,22.12
2023-07-25T11:59:01.277Z,22.12
2023-07-25T12:04:23.243Z,22.13
2023-07-25T12:09:54.903Z,22.17
2023-07-25T12:15:17.383Z,22.16
2023-07-25T12:20:48.755Z,22.15
2023-07-25T12:26:22.125Z,22.15
2023-07-25T12:31:44.728Z,22.16
2023-07-25T12:37:07.562Z,22.13
2023-07-25T12:42:29.406Z,22.12
2023-07-25T12:47:51.252Z,22.08
2023-07-25T12:53:13.227Z,22.04
2023-07-25T12:58:35.057Z,22.03
2023-07-25T13:03:57.076Z,22.03
2023-07-25T13:09:19.205Z,22.03
2023-07-25T13:14:41.285Z,22.05
2023-07-25T13:20:06.116Z,22.06
2023-07-25T13:25:28.562Z,22.05
2023-07-25T13:30:50.403Z,22.02
2023-07-25T13:36:12.354Z,22.00
2023-07-25T13:41:34.617Z,21.99
2023-07-25T13:46:56.866Z,21.97
2023-07-25T13:52:18.920Z,21.95
2023-07-25T13:57:40.751Z,21.94
2023-07-25T14:03:02.692Z,21.96
2023-07-25T14:08:24.655Z,22.00
2023-07-25T14:13:46.594Z,22.00
2023-07-25T14:19:08.832Z,22.00
2023-07-25T14:24:31.326Z,21.98
2023-07-25T14:29:53.248Z,21.96
2023-07-25T14:35:15.174Z,21.98
2023-07-25T14:40:37.251Z,22.00
2023-07-25T14:45:59.274Z,22.00
2023-07-25T14:51:21.216Z,22.00
2023-07-25T14:56:43.073Z,21.96
2023-07-25T15:02:05.556Z,21.93
2023-07-25T15:07:27.601Z,21.91
2023-07-25T15:12:49.542Z,21.90
2023-07-25T15:18:12.122Z,21.89
2023-07-25T15:23:34.217Z,21.87
2023-07-25T15:28:56.406Z,21.88
2023-07-25T15:34:18.756Z,21.88
2023-07-25T15:39:40.744Z,21.88
2023-07-25T15:45:17.709Z,21.89
2023-07-25T15:50:40.381Z,21.89
2023-07-25T15:56:02.348Z,21.87
2023-07-25T16:01:24.261Z,21.87
2023-07-25T16:06:46.111Z,21.89
2023-07-25T16:12:09.295Z,21.88
2023-07-25T16:17:31.204Z,21.88
2023-07-25T16:22:53.259Z,21.88
2023-07-25T16:28:15.110Z,21.86
2023-07-25T16:33:36.978Z,21.89
2023-07-25T16:38:59.042Z,21.90
2023-07-25T16:44:20.968Z,21.92
2023-07-25T16:49:42.796Z,21.98
2023-07-25T16:55:05.366Z,22.01
2023-07-25T17:00:27.271Z,22.01
2023-07-25T17:05:49.374Z,21.99
2023-07-25T17:11:12.825Z,21.98
2023-07-25T17:16:34.786Z,21.95
2023-07-25T17:21:56.674Z,21.95
2023-07-25T17:27:19.207Z,21.94
2023-07-25T17:32:41.232Z,21.90
2023-07-25T17:38:03.430Z,21.92
2023-07-25T17:43:25.566Z,21.90
2023-07-25T17:48:47.646Z,21.89
2023-07-25T17:54:09.541Z,21.89
2023-07-25T17:59:31.389Z,21.87
2023-07-25T18:04:53.352Z,21.87
2023-07-25T18:10:15.352Z,21.85
2023-07-25T18:15:37.268Z,21.82
2023-07-25T18:20:59.126Z,21.82
2023-07-25T18:26:21.428Z,21.79
2023-07-25T18:31:43.351Z,21.77
2023-07-25T18:37:06.244Z,21.76
2023-07-25T18:42:28.353Z,21.75
2023-07-25T18:47:50.560Z,21.74
2023-07-25T18:53:12.818Z,21.73
2023-07-25T18:58:35.168Z,21.72
2023-07-25T19:03:57.766Z,21.71
2023-07-25T19:09:21.578Z,21.70
2023-07-25T19:14:43.730Z,21.70
2023-07-25T19:20:06.984Z,21.70
2023-07-25T19:25:28.848Z,21.70
2023-07-25T19:30:50.822Z,21.72
2023-07-25T19:36:12.746Z,21.75
2023-07-25T19:41:37.717Z,21.74
2023-07-25T19:46:59.612Z,21.75
2023-07-25T19:52:21.448Z,21.75
2023-07-25T19:57:43.314Z,21.78
2023-07-25T20:03:05.493Z,21.76
2023-07-25T20:08:27.521Z,21.75
2023-07-25T20:13:49.348Z,21.74
2023-07-25T20:19:11.189Z,21.72
2023-07-25T20:24:33.085Z,21.70
2023-07-25T20:29:55.081Z,21.69
2023-07-25T20:35:16.991Z,21.67
2023-07-25T20:40:39.302Z,21.66
2023-07-25T20:46:04.671Z,21.66
2023-07-25T20:51:26.885Z,21.65
2023-07-25T20:56:48.867Z,21.62
2023-07-25T21:02:11.132Z,21.62
2023-07-25T21:07:33.320Z,21.60
2023-07-25T21:12:55.188Z,21.60
2023-07-25T21:18:17.107Z,21.59
2023-07-25T21:23:39.003Z,21.59
2023-07-25T21:29:00.944Z,21.57
2023-07-25T21:34:22.793Z,21.56
2023-07-25T21:39:44.778Z,21.55
2023-07-25T21:45:08.095Z,21.56
2023-07-25T21:50:29.961Z,21.55
2023-07-25T21:55:52.472Z,21.54
2023-07-25T22:01:14.705Z,21.53
2023-07-25T22:06:36.720Z,21.53
2023-07-25T22:11:58.648Z,21.51
2023-07-25T22:17:21.229Z,21.51
2023-07-25T22:22:43.157Z,21.51
2023-07-25T22:28:05.327Z,21.51
2023-07-25T22:33:27.281Z,21.49
2023-07-25T22:38:49.142Z,21.49
2023-07-25T22:44:11.067Z,21.49
2023-07-25T22:49:33.342Z,21.48
2023-07-25T22:54:55.232Z,21.48
2023-07-25T23:00:17.508Z,21.47
2023-07-25T23:05:39.471Z,21.48
2023-07-25T23:11:01.501Z,21.47
2023-07-25T23:16:23.695Z,21.46
2023-07-25T23:21:45.823Z,21.46
2023-07-25T23:27:08.020Z,21.46
2023-07-25T23:32:31.421Z,21.44
2023-07-25T23:37:53.771Z,21.44
2023-07-25T23:43:17.214Z,21.44
2023-07-25T23:48:39.086Z,21.42
2023-07-25T23:54:01.309Z,21.42
2023-07-25T23:59:23.301Z,21.43
